createdAt,value
2019-02-12T00:01:27.085Z,63.30
2019-02-12T00:06:49.278Z,63.20
2019-02-12T00:12:04.463Z,63.34
2019-02-12T00:17:26.699Z,63.60
2019-02-12T00:22:48.949Z,63.45
2019-02-12T00:28:11.212Z,63.18
2019-02-12T00:39:36.030Z,63.74
2019-02-12T00:44:58.233Z,64.59
2019-02-12T00:50:20.446Z,65.02
2019-02-12T00:55:42.642Z,65.64
2019-02-12T01:01:04.841Z,65.83
2019-02-12T01:06:27.039Z,66.21
2019-02-12T01:11:49.256Z,66.36
2019-02-12T01:17:11.503Z,66.26
2019-02-12T01:22:33.700Z,65.94
2019-02-12T01:27:55.880Z,66.65
2019-02-12T01:33:18.069Z,66.38
2019-02-12T01:38:40.256Z,66.81
2019-02-12T01:44:02.450Z,66.64
2019-02-12T01:49:24.648Z,66.43
2019-02-12T01:54:46.861Z,66.36
2019-02-12T02:00:11.472Z,66.35
2019-02-12T02:05:33.671Z,66.29
2019-02-12T02:11:15.416Z,66.44
2019-02-12T02:16:30.665Z,67.14
2019-02-12T02:21:52.895Z,68.85
2019-02-12T02:27:15.103Z,70.67
2019-02-12T02:32:37.280Z,72.25
2019-02-12T02:43:33.501Z,73.91
2019-02-12T02:48:55.820Z,74.05
2019-02-12T02:54:18.127Z,74.32
2019-02-12T02:59:40.379Z,74.08
2019-02-12T03:05:02.594Z,73.87
2019-02-12T03:10:24.800Z,73.48
2019-02-12T03:16:45.929Z,73.68
2019-02-12T03:21:23.012Z,73.94
2019-02-12T03:26:45.307Z,74.08
2019-02-12T03:33:05.146Z,73.93
2019-02-12T03:38:16.669Z,73.49
2019-02-12T03:43:38.913Z,73.59
2019-02-12T03:49:01.139Z,73.83
2019-02-12T03:54:23.322Z,73.83
2019-02-12T03:59:45.514Z,73.96
2019-02-12T04:27:28.948Z,74.34
2019-02-12T04:32:51.221Z,74.17
2019-02-12T04:38:13.485Z,74.39
2019-02-12T04:43:35.634Z,74.81
2019-02-12T04:48:57.843Z,74.67
2019-02-12T04:54:20.025Z,75.00
2019-02-12T04:59:42.322Z,76.47
2019-02-12T05:05:04.992Z,77.02
2019-02-12T05:10:10.715Z,77.04
2019-02-12T05:15:27.200Z,76.95
2019-02-12T05:20:49.425Z,77.16
2019-02-12T05:26:11.603Z,77.36
2019-02-12T05:31:33.785Z,77.39
2019-02-12T05:36:56.969Z,77.54
2019-02-12T05:42:20.184Z,77.13
2019-02-12T05:47:43.692Z,77.18
2019-02-12T05:53:21.997Z,76.65
2019-02-12T05:58:45.583Z,77.01
2019-02-12T06:04:22.802Z,76.82
2019-02-12T06:09:17.361Z,76.70
2019-02-12T06:14:20.210Z,76.55
2019-02-12T06:19:42.392Z,76.29
2019-02-12T06:25:07.773Z,76.45
2019-02-12T06:30:09.370Z,76.37
2019-02-12T06:35:31.564Z,76.28
2019-02-12T06:40:53.803Z,76.06
2019-02-12T06:46:15.998Z,76.24
2019-02-12T06:51:18.675Z,76.29
2019-02-12T06:56:21.364Z,76.71
2019-02-12T07:01:43.572Z,76.71
2019-02-12T07:07:44.734Z,76.44
2019-02-12T07:13:22.152Z,76.33
2019-02-12T07:19:23.347Z,76.02
2019-02-12T07:25:24.567Z,76.15
2019-02-12T07:31:25.740Z,75.87
2019-02-12T07:37:26.909Z,75.88
2019-02-12T07:43:20.362Z,76.22
2019-02-12T07:49:15.697Z,75.81
2019-02-12T07:55:09.307Z,75.54
2019-02-12T08:00:37.686Z,74.98
2019-02-12T08:06:18.400Z,74.96
2019-02-12T08:12:03.759Z,75.32
2019-02-12T08:17:51.262Z,75.05
2019-02-12T08:23:41.039Z,74.57
2019-02-12T08:29:31.817Z,74.43
2019-02-12T08:35:57.121Z,74.11
2019-02-12T08:41:30.742Z,73.69
2019-02-12T08:47:45.201Z,73.58
2019-02-12T08:53:57.314Z,73.66
2019-02-12T08:59:28.201Z,73.81
2019-02-12T09:05:13.035Z,73.33
2019-02-12T09:11:16.823Z,73.10
2019-02-12T09:17:23.787Z,72.74
2019-02-12T09:23:15.076Z,72.33
2019-02-12T09:29:05.377Z,71.42
2019-02-12T09:34:37.121Z,70.79
2019-02-12T09:40:21.143Z,70.41
2019-02-12T09:46:35.468Z,69.97
2019-02-12T09:52:25.826Z,69.92
2019-02-12T09:58:32.646Z,69.63
2019-02-12T10:04:48.807Z,69.66
2019-02-12T10:10:45.587Z,69.86
2019-02-12T10:16:32.255Z,69.44
2019-02-12T10:22:32.183Z,68.60
2019-02-12T10:28:21.285Z,67.25
2019-02-12T10:33:23.994Z,66.88
2019-02-12T10:38:26.672Z,66.48
2019-02-12T10:43:29.378Z,66.61
2019-02-12T10:48:32.063Z,66.42
2019-02-12T10:53:34.757Z,66.68
2019-02-12T10:58:37.436Z,66.44
2019-02-12T11:03:40.120Z,66.01
2019-02-12T11:08:42.815Z,65.74
2019-02-12T11:13:45.550Z,65.54
2019-02-12T11:18:48.260Z,65.19
2019-02-12T11:23:50.975Z,64.62
2019-02-12T11:28:53.658Z,63.83
2019-02-12T11:33:56.413Z,64.25
2019-02-12T11:38:59.093Z,63.70
2019-02-12T11:44:01.780Z,64.53
2019-02-12T11:49:04.457Z,64.76
2019-02-12T11:54:07.135Z,65.12
2019-02-12T11:59:09.829Z,65.24
2019-02-12T12:04:12.519Z,64.98
2019-02-12T12:09:15.201Z,64.40
2019-02-12T12:14:17.913Z,63.98
2019-02-12T12:19:20.609Z,63.61
2019-02-12T12:24:23.296Z,64.03
2019-02-12T12:29:25.986Z,62.54
2019-02-12T12:34:28.678Z,61.08
2019-02-12T12:39:31.359Z,59.81
2019-02-12T12:44:34.045Z,58.88
2019-02-12T12:49:36.741Z,59.00
2019-02-12T12:54:39.427Z,58.64
2019-02-12T12:59:42.124Z,58.50
2019-02-12T13:04:44.800Z,58.71
2019-02-12T13:09:47.484Z,58.44
2019-02-12T13:14:50.200Z,58.48
2019-02-12T13:19:52.885Z,58.18
2019-02-12T13:24:55.581Z,59.87
2019-02-12T13:30:00.133Z,63.60
2019-02-12T13:35:03.275Z,65.91
2019-02-12T13:40:08.203Z,65.92
2019-02-12T13:45:12.424Z,65.27
2019-02-12T13:50:15.121Z,64.91
2019-02-12T13:55:17.912Z,65.16
2019-02-12T14:00:20.708Z,64.81
2019-02-12T14:05:23.392Z,65.33
2019-02-12T14:10:26.081Z,65.49
2019-02-12T14:15:28.795Z,66.55
2019-02-12T14:20:31.468Z,67.05
2019-02-12T14:25:34.172Z,67.08
2019-02-12T14:30:36.868Z,67.20
2019-02-12T14:35:39.559Z,67.19
2019-02-12T14:40:42.266Z,66.81
2019-02-12T14:45:51.885Z,67.05
2019-02-12T14:50:54.571Z,67.27
2019-02-12T14:55:57.289Z,67.31
2019-02-12T15:00:59.972Z,67.57
2019-02-12T15:06:02.675Z,67.81
2019-02-12T15:11:05.380Z,68.51
2019-02-12T15:16:08.080Z,69.04
2019-02-12T15:21:10.773Z,69.41
2019-02-12T15:26:13.454Z,69.71
2019-02-12T15:31:16.166Z,70.29
2019-02-12T15:36:18.874Z,69.82
2019-02-12T15:41:21.552Z,69.84
2019-02-12T15:46:24.251Z,69.47
2019-02-12T15:51:26.949Z,69.32
2019-02-12T15:56:29.650Z,69.92
2019-02-12T16:01:32.329Z,70.58
2019-02-12T16:06:35.037Z,70.84
2019-02-12T16:11:37.723Z,70.99
2019-02-12T16:16:40.416Z,71.26
2019-02-12T16:21:43.113Z,71.46
2019-02-12T16:26:45.894Z,72.08
2019-02-12T16:31:48.567Z,72.60
2019-02-12T16:36:51.253Z,72.40
2019-02-12T16:41:53.949Z,72.27
2019-02-12T16:46:56.674Z,72.55
2019-02-12T16:51:59.515Z,72.81
2019-02-12T16:57:02.331Z,73.20
2019-02-12T17:02:05.057Z,73.25
2019-02-12T17:07:07.805Z,73.21
2019-02-12T17:12:10.513Z,73.29
2019-02-12T17:17:13.208Z,73.21
2019-02-12T17:22:15.930Z,73.54
2019-02-12T17:27:18.637Z,74.02
2019-02-12T17:32:21.308Z,74.73
2019-02-12T17:37:23.994Z,75.33
2019-02-12T17:42:26.683Z,75.32
2019-02-12T17:47:29.363Z,75.65
2019-02-12T17:52:32.225Z,75.80
2019-02-12T17:57:35.035Z,75.90
2019-02-12T18:02:37.708Z,75.82
2019-02-12T18:07:40.391Z,76.04
2019-02-12T18:12:43.398Z,76.08
2019-02-12T18:17:46.164Z,76.48
2019-02-12T18:22:48.947Z,76.61
2019-02-12T18:27:51.701Z,76.81
2019-02-12T18:32:54.354Z,76.82
2019-02-12T18:37:57.298Z,77.31
2019-02-12T18:42:59.981Z,77.31
2019-02-12T18:48:02.689Z,77.39
2019-02-12T18:53:05.502Z,77.36
2019-02-12T18:58:08.209Z,77.58
2019-02-12T19:03:10.906Z,77.58
2019-02-12T19:08:13.598Z,77.16
2019-02-12T19:13:16.332Z,76.62
2019-02-12T19:18:23.257Z,76.48
2019-02-12T19:23:25.956Z,75.89
2019-02-12T19:28:28.627Z,75.89
2019-02-12T19:33:31.339Z,75.70
2019-02-12T19:38:35.118Z,75.75
2019-02-12T19:43:37.801Z,75.92
2019-02-12T19:48:40.486Z,76.09
2019-02-12T19:53:43.191Z,75.83
2019-02-12T19:58:45.888Z,75.98
2019-02-12T20:03:48.686Z,75.97
2019-02-12T20:08:51.393Z,76.04
2019-02-12T20:13:54.105Z,75.93
2019-02-12T20:18:56.878Z,75.49
2019-02-12T20:24:01.290Z,75.68
2019-02-12T20:29:04.082Z,75.86
2019-02-12T20:34:06.785Z,76.03
2019-02-12T20:39:09.474Z,75.63
2019-02-12T20:44:12.168Z,75.95
2019-02-12T20:49:14.931Z,75.65
2019-02-12T20:54:17.644Z,75.56
2019-02-12T20:59:20.351Z,75.19
2019-02-12T21:04:23.050Z,75.21
2019-02-12T21:09:25.778Z,75.45
2019-02-12T21:14:28.591Z,75.56
2019-02-12T21:19:31.357Z,75.69
2019-02-12T21:24:34.051Z,75.63
2019-02-12T21:29:36.784Z,75.75
2019-02-12T21:34:39.513Z,75.63
2019-02-12T21:39:42.397Z,75.65
2019-02-12T21:44:45.206Z,75.55
2019-02-12T21:49:48.159Z,75.59
2019-02-12T21:54:50.845Z,75.74
2019-02-12T21:59:53.563Z,76.16
2019-02-12T22:04:56.253Z,75.91
2019-02-12T22:09:59.011Z,76.04
2019-02-12T22:15:01.720Z,75.92
2019-02-12T22:20:04.844Z,76.19
2019-02-12T22:25:07.742Z,76.11
2019-02-12T22:30:15.974Z,76.07
2019-02-12T22:35:18.682Z,76.42
2019-02-12T22:40:21.367Z,76.36
2019-02-12T22:45:24.132Z,75.99
2019-02-12T22:50:26.830Z,75.94
2019-02-12T22:55:29.519Z,75.60
2019-02-12T23:01:01.489Z,75.59
2019-02-12T23:06:04.197Z,75.47
2019-02-12T23:11:09.342Z,75.49
2019-02-12T23:16:12.025Z,75.09
2019-02-12T23:21:14.720Z,74.82
2019-02-12T23:26:17.700Z,74.48
2019-02-12T23:31:20.397Z,74.10
2019-02-12T23:36:23.101Z,74.27
2019-02-12T23:41:25.801Z,74.46
2019-02-12T23:46:28.483Z,74.52
2019-02-12T23:51:31.165Z,74.50
2019-02-12T23:56:33.857Z,74.63
